Schenectady, NY (12306)

12:37 PM EDT on May 05, 2015 (GMT -0400)
Scotia Spring Rd | | Change Station
CLOSE
Current Station
Personal Weather Station
Location: Schenectady, NY
Elevation: 479 ft
Nearby Weather Stations

Elev 479 ft 42.87 °N, 73.96 °W | Updated 3 minutes ago

Partly Cloudy
Partly Cloudy
73.9 °F
Feels Like 77 °F
N
2.2
Wind Variable Wind from SSW

Today
High -- | Low -- °F
--% Chance of Precip.
Yesterday
High -- | Low -- °F
Precip. -- in
5:45 AM 8:00 PM
Full, 98% visible
Pressure 30.23 in
Visibility 10.0 miles
Clouds Scattered Clouds 6500 ft
Heat Index 77 °F
Dew Point 46 °F
Humidity 37%
Rainfall 0.00 in
Snow Depth Not available.
UV 8 out of 12
Pollen 7.00 out of 12
Air Quality Not available.
Flu Activity Widespread
METAR KSCH 051559Z 31007KT 10SM SCT065 23/06 A3023

More Conditions Fewer Conditions

Pressure 30.23 in
Visibility 10.0 miles
Clouds Scattered Clouds 6500 ft
Heat Index 77 °F
Dew Point 46 °F
Humidity 37%
Rainfall 0.00 in
Snow Depth Not available.
UV 8 out of 12
Pollen 7.00 out of 12
Air Quality Not available.
Flu Activity Widespread
METAR KSCH 051559Z 31007KT 10SM SCT065 23/06 A3023

More Conditions Fewer Conditions

10-Day Weather Forecast

Almanac

Astronomy

May. 05, 2015 Rise Set
Actual Time
Civil Twilight
Nautical Twilight
Astronomical Twilight
Moon
Length of Visible Light
Length of Day
Tomorrow will be .
, % of the Moon is Illuminated

Today's Extremes

State Highs State Lows

Community

WunderPhotos

Upload Photos

1,818,936 photos uploaded!

WunderBlogs® & News

Nearby

Air Quality

  Air Quality AQ Index Pollutant
Not available.

Snow Depth

Station Depth Elevation

Earthquake Activity

City Distance Mag. Time & Date
Minimum magnitude displayed is 2.5.

Coastal Water Temperatures

Place Temperature

Stations

Nearby Weather Stations

Station Location Temp. Windchill Dew Point Humidity Wind Precip. Elev Updated Type